createdAt,value
2022-09-15T00:01:02.347Z,19.40
2022-09-15T00:11:07.497Z,22.70
2022-09-15T00:21:07.132Z,21.90
2022-09-15T00:31:06.708Z,21.90
2022-09-15T00:41:06.409Z,22.00
2022-09-15T00:51:05.878Z,20.70
2022-09-15T01:01:05.608Z,21.20
2022-09-15T01:11:05.305Z,18.60
2022-09-15T01:21:04.763Z,16.90
2022-09-15T01:51:09.584Z,16.30
2022-09-15T02:01:09.233Z,16.60
2022-09-15T02:11:08.823Z,17.60
2022-09-15T02:21:08.626Z,16.70
2022-09-15T02:31:08.318Z,15.80
2022-09-15T02:41:07.742Z,15.00
2022-09-15T02:51:07.395Z,15.00
2022-09-15T03:01:07.056Z,15.00
2022-09-15T03:11:06.639Z,15.90
2022-09-15T03:21:06.281Z,14.30
2022-09-15T03:31:06.051Z,16.80
2022-09-15T03:41:05.975Z,16.60
2022-09-15T03:51:06.179Z,16.90
2022-09-15T04:01:06.152Z,20.60
2022-09-15T04:11:06.147Z,22.80
2022-09-15T04:21:06.527Z,31.00
2022-09-15T04:31:06.545Z,26.10
2022-09-15T04:41:06.588Z,17.50
2022-09-15T04:51:11.745Z,22.10
2022-09-15T05:01:11.431Z,22.50
2022-09-15T05:11:10.873Z,22.60
2022-09-15T05:21:10.676Z,21.00
2022-09-15T05:31:10.236Z,20.70
2022-09-15T05:41:09.827Z,23.20
2022-09-15T05:51:09.455Z,20.10
2022-09-15T06:01:09.116Z,22.00
2022-09-15T06:11:08.753Z,21.60
2022-09-15T06:21:08.490Z,20.10
2022-09-15T06:31:08.627Z,22.50
2022-09-15T06:41:13.774Z,26.80
2022-09-15T06:51:13.419Z,28.20
2022-09-15T07:01:13.099Z,27.90
2022-09-15T07:11:12.695Z,32.10
2022-09-15T07:21:12.484Z,27.50
2022-09-15T07:31:12.226Z,26.20
2022-09-15T07:41:11.796Z,27.00
2022-09-15T07:51:11.430Z,25.20
2022-09-15T08:01:10.998Z,22.50
2022-09-15T08:11:12.186Z,17.10
2022-09-15T08:21:10.401Z,16.30
2022-09-15T08:31:15.570Z,13.50
2022-09-15T08:41:15.317Z,15.20
2022-09-15T08:51:14.785Z,11.40
2022-09-15T09:01:14.476Z,9.40
2022-09-15T09:11:14.064Z,12.00
2022-09-15T09:21:13.701Z,12.40
2022-09-15T09:31:13.384Z,12.20
2022-09-15T09:41:12.969Z,11.10
2022-09-15T09:51:12.764Z,9.70
2022-09-15T10:01:12.589Z,9.80
2022-09-15T10:11:17.694Z,9.20
2022-09-15T10:21:17.156Z,9.40
2022-09-15T10:31:16.817Z,9.30
2022-09-15T10:41:16.139Z,9.30
2022-09-15T10:51:15.633Z,8.80
2022-09-15T11:01:15.308Z,9.10
2022-09-15T11:11:14.887Z,9.60
2022-09-15T11:21:14.679Z,7.80
2022-09-15T11:31:19.817Z,9.10
2022-09-15T11:41:19.273Z,10.60
2022-09-15T11:51:19.051Z,9.00
2022-09-15T12:01:18.684Z,7.30
2022-09-15T12:11:18.326Z,7.90
2022-09-15T12:21:17.805Z,5.80
2022-09-15T12:31:17.462Z,6.60
2022-09-15T12:41:17.248Z,5.10
2022-09-15T12:51:17.264Z,8.90
2022-09-15T13:01:22.479Z,6.30
2022-09-15T13:11:21.906Z,8.50
2022-09-15T17:21:41.246Z,4.40
2022-09-15T17:31:41.071Z,5.00
2022-09-15T17:41:40.530Z,5.80
2022-09-15T17:51:40.198Z,7.50
2022-09-15T18:01:40.144Z,4.40
2022-09-15T18:11:45.222Z,6.20
2022-09-15T18:21:44.939Z,4.20
2022-09-15T18:31:43.928Z,7.00
2022-09-15T18:41:43.406Z,5.00
2022-09-15T18:51:51.410Z,4.40
2022-09-15T19:01:42.622Z,4.30
2022-09-15T19:11:42.142Z,5.20
2022-09-15T19:21:41.910Z,4.20
2022-09-15T19:31:42.207Z,4.80
2022-09-15T19:41:41.915Z,5.00
2022-09-15T19:51:41.972Z,4.80
2022-09-15T20:01:41.997Z,4.80
2022-09-15T20:11:47.119Z,8.40
2022-09-15T20:21:50.125Z,7.60
2022-09-15T20:31:46.548Z,5.20
2022-09-15T20:41:45.974Z,5.10
2022-09-15T20:51:45.548Z,4.80
2022-09-15T21:01:45.318Z,5.30
2022-09-15T21:11:44.785Z,6.90
2022-09-15T21:21:44.527Z,6.60
2022-09-15T21:31:44.013Z,6.30
2022-09-15T21:41:43.597Z,6.10
